sensor_id;sensor_type;location;lat;lon;timestamp;temperature;humidity
76293;DHT22;67256;51.154;4.164;2024-01-07T00:00:06;4.20;94.90
76293;DHT22;67256;51.154;4.164;2024-01-07T00:02:32;4.10;95.20
76293;DHT22;67256;51.154;4.164;2024-01-07T00:04:58;4.10;95.00
76293;DHT22;67256;51.154;4.164;2024-01-07T00:07:24;4.20;94.70
76293;DHT22;67256;51.154;4.164;2024-01-07T00:09:50;4.20;95.10
76293;DHT22;67256;51.154;4.164;2024-01-07T00:12:15;4.20;94.90
76293;DHT22;67256;51.154;4.164;2024-01-07T00:14:42;4.30;94.90
76293;DHT22;67256;51.154;4.164;2024-01-07T00:17:08;4.20;94.80
76293;DHT22;67256;51.154;4.164;2024-01-07T00:19:34;4.10;95.00
76293;DHT22;67256;51.154;4.164;2024-01-07T00:22:01;4.00;95.00
76293;DHT22;67256;51.154;4.164;2024-01-07T00:24:27;4.00;95.00
76293;DHT22;67256;51.154;4.164;2024-01-07T00:26:54;4.00;95.00
76293;DHT22;67256;51.154;4.164;2024-01-07T00:29:20;4.10;95.10
76293;DHT22;67256;51.154;4.164;2024-01-07T00:31:46;4.00;94.70
76293;DHT22;67256;51.154;4.164;2024-01-07T00:34:12;3.80;94.90
76293;DHT22;67256;51.154;4.164;2024-01-07T00:36:38;3.80;94.90
76293;DHT22;67256;51.154;4.164;2024-01-07T00:39:03;3.80;95.00
76293;DHT22;67256;51.154;4.164;2024-01-07T00:41:29;3.90;94.90
76293;DHT22;67256;51.154;4.164;2024-01-07T00:43:58;4.00;94.90
76293;DHT22;67256;51.154;4.164;2024-01-07T00:46:23;4.00;94.70
76293;DHT22;67256;51.154;4.164;2024-01-07T00:48:49;4.00;94.90
76293;DHT22;67256;51.154;4.164;2024-01-07T00:51:15;3.80;94.80
76293;DHT22;67256;51.154;4.164;2024-01-07T00:53:40;3.80;95.00
76293;DHT22;67256;51.154;4.164;2024-01-07T00:56:06;3.90;95.00
76293;DHT22;67256;51.154;4.164;2024-01-07T00:58:32;3.90;94.90
76293;DHT22;67256;51.154;4.164;2024-01-07T01:00:58;3.90;95.10
76293;DHT22;67256;51.154;4.164;2024-01-07T01:03:26;3.80;95.10
76293;DHT22;67256;51.154;4.164;2024-01-07T01:05:52;3.80;95.10
76293;DHT22;67256;51.154;4.164;2024-01-07T01:08:18;3.70;95.60
76293;DHT22;67256;51.154;4.164;2024-01-07T01:10:44;3.80;95.60
76293;DHT22;67256;51.154;4.164;2024-01-07T01:13:09;3.90;95.50
76293;DHT22;67256;51.154;4.164;2024-01-07T01:15:35;3.80;95.80
76293;DHT22;67256;51.154;4.164;2024-01-07T01:18:01;3.90;95.70
76293;DHT22;67256;51.154;4.164;2024-01-07T01:20:28;3.80;95.80
76293;DHT22;67256;51.154;4.164;2024-01-07T01:22:53;3.80;95.80
76293;DHT22;67256;51.154;4.164;2024-01-07T01:25:19;3.70;96.00
76293;DHT22;67256;51.154;4.164;2024-01-07T01:27:45;3.70;96.10
76293;DHT22;67256;51.154;4.164;2024-01-07T01:30:11;3.60;96.10
76293;DHT22;67256;51.154;4.164;2024-01-07T01:32:37;3.60;96.10
76293;DHT22;67256;51.154;4.164;2024-01-07T01:35:04;3.60;96.20
76293;DHT22;67256;51.154;4.164;2024-01-07T01:37:30;3.60;96.30
76293;DHT22;67256;51.154;4.164;2024-01-07T01:39:58;3.50;96.30
76293;DHT22;67256;51.154;4.164;2024-01-07T01:42:24;3.60;96.50
76293;DHT22;67256;51.154;4.164;2024-01-07T01:44:50;3.50;96.40
76293;DHT22;67256;51.154;4.164;2024-01-07T01:47:17;3.60;96.50
76293;DHT22;67256;51.154;4.164;2024-01-07T01:49:44;3.60;96.30
76293;DHT22;67256;51.154;4.164;2024-01-07T01:52:11;3.60;96.40
76293;DHT22;67256;51.154;4.164;2024-01-07T01:54:38;3.60;96.60
76293;DHT22;67256;51.154;4.164;2024-01-07T01:57:04;3.70;96.70
76293;DHT22;67256;51.154;4.164;2024-01-07T01:59:30;3.70;96.40
76293;DHT22;67256;51.154;4.164;2024-01-07T02:01:57;3.80;96.30
76293;DHT22;67256;51.154;4.164;2024-01-07T02:04:23;3.70;96.40
76293;DHT22;67256;51.154;4.164;2024-01-07T02:06:48;3.80;96.20
76293;DHT22;67256;51.154;4.164;2024-01-07T02:09:14;3.80;96.10
76293;DHT22;67256;51.154;4.164;2024-01-07T02:11:40;3.80;96.20
76293;DHT22;67256;51.154;4.164;2024-01-07T02:14:05;3.80;96.10
76293;DHT22;67256;51.154;4.164;2024-01-07T02:16:31;3.70;96.20
76293;DHT22;67256;51.154;4.164;2024-01-07T02:18:57;3.80;96.30
76293;DHT22;67256;51.154;4.164;2024-01-07T02:21:23;3.90;95.80
76293;DHT22;67256;51.154;4.164;2024-01-07T02:23:49;3.90;96.00
76293;DHT22;67256;51.154;4.164;2024-01-07T02:26:15;4.00;95.60
76293;DHT22;67256;51.154;4.164;2024-01-07T02:28:41;3.90;95.80
76293;DHT22;67256;51.154;4.164;2024-01-07T02:31:07;3.90;96.00
76293;DHT22;67256;51.154;4.164;2024-01-07T02:33:32;3.70;96.10
76293;DHT22;67256;51.154;4.164;2024-01-07T02:35:58;3.60;96.70
76293;DHT22;67256;51.154;4.164;2024-01-07T02:38:24;3.50;97.00
76293;DHT22;67256;51.154;4.164;2024-01-07T02:40:50;3.50;97.10
76293;DHT22;67256;51.154;4.164;2024-01-07T02:43:15;3.60;96.80
76293;DHT22;67256;51.154;4.164;2024-01-07T02:45:41;3.60;96.60
76293;DHT22;67256;51.154;4.164;2024-01-07T02:48:07;3.40;96.40
76293;DHT22;67256;51.154;4.164;2024-01-07T02:50:32;3.40;96.50
76293;DHT22;67256;51.154;4.164;2024-01-07T02:52:58;3.40;96.30
76293;DHT22;67256;51.154;4.164;2024-01-07T02:55:24;3.40;96.20
76293;DHT22;67256;51.154;4.164;2024-01-07T02:57:50;3.30;96.30
76293;DHT22;67256;51.154;4.164;2024-01-07T03:00:16;3.30;96.20
76293;DHT22;67256;51.154;4.164;2024-01-07T03:02:41;3.30;96.30
76293;DHT22;67256;51.154;4.164;2024-01-07T03:05:08;3.30;96.30
76293;DHT22;67256;51.154;4.164;2024-01-07T03:07:34;3.30;96.20
76293;DHT22;67256;51.154;4.164;2024-01-07T03:09:59;3.40;95.90
76293;DHT22;67256;51.154;4.164;2024-01-07T03:12:25;3.20;96.30
76293;DHT22;67256;51.154;4.164;2024-01-07T03:14:51;3.20;96.00
76293;DHT22;67256;51.154;4.164;2024-01-07T03:17:17;3.20;95.90
76293;DHT22;67256;51.154;4.164;2024-01-07T03:19:43;3.30;95.70
76293;DHT22;67256;51.154;4.164;2024-01-07T03:22:08;3.40;95.30
76293;DHT22;67256;51.154;4.164;2024-01-07T03:24:34;3.30;95.10
76293;DHT22;67256;51.154;4.164;2024-01-07T03:27:00;3.30;95.50
76293;DHT22;67256;51.154;4.164;2024-01-07T03:29:26;3.20;95.60
76293;DHT22;67256;51.154;4.164;2024-01-07T03:31:51;3.20;95.70
76293;DHT22;67256;51.154;4.164;2024-01-07T03:34:18;3.20;95.90
76293;DHT22;67256;51.154;4.164;2024-01-07T03:36:44;3.30;95.70
76293;DHT22;67256;51.154;4.164;2024-01-07T03:39:10;3.40;95.70
76293;DHT22;67256;51.154;4.164;2024-01-07T03:41:35;3.20;95.90
76293;DHT22;67256;51.154;4.164;2024-01-07T03:44:02;3.10;95.80
76293;DHT22;67256;51.154;4.164;2024-01-07T03:46:28;3.20;96.10
76293;DHT22;67256;51.154;4.164;2024-01-07T03:48:53;3.20;95.90
76293;DHT22;67256;51.154;4.164;2024-01-07T03:51:19;3.40;95.80
76293;DHT22;67256;51.154;4.164;2024-01-07T03:53:45;3.40;95.40
76293;DHT22;67256;51.154;4.164;2024-01-07T03:56:10;3.50;95.20
76293;DHT22;67256;51.154;4.164;2024-01-07T03:58:36;3.70;94.80
76293;DHT22;67256;51.154;4.164;2024-01-07T04:01:02;3.70;94.90
76293;DHT22;67256;51.154;4.164;2024-01-07T04:03:27;3.50;95.00
76293;DHT22;67256;51.154;4.164;2024-01-07T04:05:53;3.50;95.40
76293;DHT22;67256;51.154;4.164;2024-01-07T04:08:19;3.30;95.80
76293;DHT22;67256;51.154;4.164;2024-01-07T04:10:45;3.20;96.40
76293;DHT22;67256;51.154;4.164;2024-01-07T04:13:10;3.10;96.60
76293;DHT22;67256;51.154;4.164;2024-01-07T04:15:36;3.20;96.80
76293;DHT22;67256;51.154;4.164;2024-01-07T04:18:05;3.10;96.70
76293;DHT22;67256;51.154;4.164;2024-01-07T04:20:31;3.10;96.90
76293;DHT22;67256;51.154;4.164;2024-01-07T04:22:57;3.10;97.00
76293;DHT22;67256;51.154;4.164;2024-01-07T04:25:24;3.00;97.00
76293;DHT22;67256;51.154;4.164;2024-01-07T04:27:50;2.90;97.10
76293;DHT22;67256;51.154;4.164;2024-01-07T04:30:16;2.80;97.10
76293;DHT22;67256;51.154;4.164;2024-01-07T04:32:41;3.00;97.10
76293;DHT22;67256;51.154;4.164;2024-01-07T04:35:07;3.00;96.50
76293;DHT22;67256;51.154;4.164;2024-01-07T04:37:34;3.10;96.20
76293;DHT22;67256;51.154;4.164;2024-01-07T04:40:00;3.00;96.30
76293;DHT22;67256;51.154;4.164;2024-01-07T04:42:26;3.00;96.40
76293;DHT22;67256;51.154;4.164;2024-01-07T04:44:51;3.10;96.30
76293;DHT22;67256;51.154;4.164;2024-01-07T04:47:31;3.10;96.10
76293;DHT22;67256;51.154;4.164;2024-01-07T04:49:57;3.20;96.10
76293;DHT22;67256;51.154;4.164;2024-01-07T04:52:23;3.10;96.20
76293;DHT22;67256;51.154;4.164;2024-01-07T04:54:53;2.90;96.70
76293;DHT22;67256;51.154;4.164;2024-01-07T04:57:19;2.90;96.80
76293;DHT22;67256;51.154;4.164;2024-01-07T04:59:45;3.00;96.80
76293;DHT22;67256;51.154;4.164;2024-01-07T05:02:11;2.90;97.00
76293;DHT22;67256;51.154;4.164;2024-01-07T05:04:38;2.90;97.30
76293;DHT22;67256;51.154;4.164;2024-01-07T05:07:04;2.90;97.60
76293;DHT22;67256;51.154;4.164;2024-01-07T05:09:30;3.00;97.70
76293;DHT22;67256;51.154;4.164;2024-01-07T05:11:56;2.80;97.90
76293;DHT22;67256;51.154;4.164;2024-01-07T05:14:22;2.80;98.50
76293;DHT22;67256;51.154;4.164;2024-01-07T05:16:48;2.70;98.40
76293;DHT22;67256;51.154;4.164;2024-01-07T05:19:14;2.70;98.70
76293;DHT22;67256;51.154;4.164;2024-01-07T05:21:39;2.90;98.50
76293;DHT22;67256;51.154;4.164;2024-01-07T05:24:05;2.80;98.40
76293;DHT22;67256;51.154;4.164;2024-01-07T05:26:37;2.90;98.50
76293;DHT22;67256;51.154;4.164;2024-01-07T05:29:03;3.10;98.00
76293;DHT22;67256;51.154;4.164;2024-01-07T05:31:28;3.00;98.00
76293;DHT22;67256;51.154;4.164;2024-01-07T05:33:54;3.00;98.30
76293;DHT22;67256;51.154;4.164;2024-01-07T05:36:23;3.00;98.20
76293;DHT22;67256;51.154;4.164;2024-01-07T05:38:49;3.00;98.00
76293;DHT22;67256;51.154;4.164;2024-01-07T05:41:14;2.90;98.30
76293;DHT22;67256;51.154;4.164;2024-01-07T05:43:40;2.90;98.30
76293;DHT22;67256;51.154;4.164;2024-01-07T05:46:06;3.10;98.00
76293;DHT22;67256;51.154;4.164;2024-01-07T05:48:50;3.10;97.80
76293;DHT22;67256;51.154;4.164;2024-01-07T05:51:16;3.20;97.80
76293;DHT22;67256;51.154;4.164;2024-01-07T05:53:45;3.40;97.40
76293;DHT22;67256;51.154;4.164;2024-01-07T05:56:11;3.20;97.70
76293;DHT22;67256;51.154;4.164;2024-01-07T05:58:36;3.10;97.90
76293;DHT22;67256;51.154;4.164;2024-01-07T06:01:02;2.80;98.40
76293;DHT22;67256;51.154;4.164;2024-01-07T06:03:28;2.90;98.30
76293;DHT22;67256;51.154;4.164;2024-01-07T06:05:54;3.00;98.20
76293;DHT22;67256;51.154;4.164;2024-01-07T06:08:19;3.00;98.20
76293;DHT22;67256;51.154;4.164;2024-01-07T06:10:45;3.00;98.00
76293;DHT22;67256;51.154;4.164;2024-01-07T06:13:11;2.90;98.00
76293;DHT22;67256;51.154;4.164;2024-01-07T06:15:37;2.80;98.30
76293;DHT22;67256;51.154;4.164;2024-01-07T06:18:02;2.80;98.40
76293;DHT22;67256;51.154;4.164;2024-01-07T06:20:28;2.80;98.30
76293;DHT22;67256;51.154;4.164;2024-01-07T06:22:54;2.70;98.60
76293;DHT22;67256;51.154;4.164;2024-01-07T06:25:20;2.60;98.80
76293;DHT22;67256;51.154;4.164;2024-01-07T06:27:46;2.60;98.90
76293;DHT22;67256;51.154;4.164;2024-01-07T06:30:12;2.70;98.70
76293;DHT22;67256;51.154;4.164;2024-01-07T06:32:39;2.70;98.70
76293;DHT22;67256;51.154;4.164;2024-01-07T06:35:05;2.80;98.50
76293;DHT22;67256;51.154;4.164;2024-01-07T06:37:30;3.00;98.30
76293;DHT22;67256;51.154;4.164;2024-01-07T06:39:57;3.00;98.30
76293;DHT22;67256;51.154;4.164;2024-01-07T06:42:24;2.90;98.30
76293;DHT22;67256;51.154;4.164;2024-01-07T06:44:49;2.80;98.50
76293;DHT22;67256;51.154;4.164;2024-01-07T06:47:15;2.70;98.70
76293;DHT22;67256;51.154;4.164;2024-01-07T06:49:41;2.70;98.90
76293;DHT22;67256;51.154;4.164;2024-01-07T06:52:07;2.80;98.80
76293;DHT22;67256;51.154;4.164;2024-01-07T06:54:32;3.00;98.50
76293;DHT22;67256;51.154;4.164;2024-01-07T06:56:58;3.10;98.30
76293;DHT22;67256;51.154;4.164;2024-01-07T06:59:24;2.90;98.40
76293;DHT22;67256;51.154;4.164;2024-01-07T07:01:50;3.00;98.40
76293;DHT22;67256;51.154;4.164;2024-01-07T07:04:16;3.00;98.30
76293;DHT22;67256;51.154;4.164;2024-01-07T07:06:42;2.80;98.10
76293;DHT22;67256;51.154;4.164;2024-01-07T07:09:07;2.90;98.20
76293;DHT22;67256;51.154;4.164;2024-01-07T07:11:33;3.00;97.80
76293;DHT22;67256;51.154;4.164;2024-01-07T07:13:59;2.90;98.10
76293;DHT22;67256;51.154;4.164;2024-01-07T07:16:25;2.90;98.20
76293;DHT22;67256;51.154;4.164;2024-01-07T07:18:51;2.90;98.50
76293;DHT22;67256;51.154;4.164;2024-01-07T07:21:17;2.80;98.70
76293;DHT22;67256;51.154;4.164;2024-01-07T07:23:43;2.80;98.80
76293;DHT22;67256;51.154;4.164;2024-01-07T07:26:09;2.80;98.80
76293;DHT22;67256;51.154;4.164;2024-01-07T07:28:34;2.70;99.00
76293;DHT22;67256;51.154;4.164;2024-01-07T07:31:00;2.80;99.00
76293;DHT22;67256;51.154;4.164;2024-01-07T07:33:26;2.80;99.20
76293;DHT22;67256;51.154;4.164;2024-01-07T07:35:51;2.90;98.70
76293;DHT22;67256;51.154;4.164;2024-01-07T07:38:17;2.90;98.90
76293;DHT22;67256;51.154;4.164;2024-01-07T07:40:43;2.70;99.10
76293;DHT22;67256;51.154;4.164;2024-01-07T07:43:10;2.60;99.10
76293;DHT22;67256;51.154;4.164;2024-01-07T07:45:36;2.60;99.60
76293;DHT22;67256;51.154;4.164;2024-01-07T07:48:02;2.70;99.30
76293;DHT22;67256;51.154;4.164;2024-01-07T07:50:28;2.70;99.40
76293;DHT22;67256;51.154;4.164;2024-01-07T07:52:54;2.70;99.40
76293;DHT22;67256;51.154;4.164;2024-01-07T07:55:19;2.60;99.30
76293;DHT22;67256;51.154;4.164;2024-01-07T07:57:45;2.60;99.40
76293;DHT22;67256;51.154;4.164;2024-01-07T08:00:12;2.60;99.30
76293;DHT22;67256;51.154;4.164;2024-01-07T08:02:38;2.70;99.20
76293;DHT22;67256;51.154;4.164;2024-01-07T08:05:06;2.80;99.20
76293;DHT22;67256;51.154;4.164;2024-01-07T08:07:32;2.90;98.80
76293;DHT22;67256;51.154;4.164;2024-01-07T08:09:57;2.90;98.70
76293;DHT22;67256;51.154;4.164;2024-01-07T08:12:23;2.80;98.80
76293;DHT22;67256;51.154;4.164;2024-01-07T08:14:49;2.70;98.90
76293;DHT22;67256;51.154;4.164;2024-01-07T08:17:15;2.80;99.10
76293;DHT22;67256;51.154;4.164;2024-01-07T08:19:41;2.80;99.00
76293;DHT22;67256;51.154;4.164;2024-01-07T08:22:07;2.70;99.00
76293;DHT22;67256;51.154;4.164;2024-01-07T08:24:34;2.70;99.20
76293;DHT22;67256;51.154;4.164;2024-01-07T08:27:00;2.70;99.30
76293;DHT22;67256;51.154;4.164;2024-01-07T08:29:26;2.80;99.20
76293;DHT22;67256;51.154;4.164;2024-01-07T08:31:52;2.70;99.20
76293;DHT22;67256;51.154;4.164;2024-01-07T08:34:18;2.80;99.20
76293;DHT22;67256;51.154;4.164;2024-01-07T08:36:43;2.80;99.10
76293;DHT22;67256;51.154;4.164;2024-01-07T08:39:09;2.90;99.00
76293;DHT22;67256;51.154;4.164;2024-01-07T08:41:36;2.90;99.20
76293;DHT22;67256;51.154;4.164;2024-01-07T08:44:02;2.90;99.00
76293;DHT22;67256;51.154;4.164;2024-01-07T08:46:27;2.80;99.20
76293;DHT22;67256;51.154;4.164;2024-01-07T08:48:53;2.80;99.10
76293;DHT22;67256;51.154;4.164;2024-01-07T08:51:19;2.80;98.90
76293;DHT22;67256;51.154;4.164;2024-01-07T08:53:45;2.80;99.00
76293;DHT22;67256;51.154;4.164;2024-01-07T08:56:12;2.80;99.00
76293;DHT22;67256;51.154;4.164;2024-01-07T08:58:40;2.60;99.20
76293;DHT22;67256;51.154;4.164;2024-01-07T09:01:05;2.60;99.60
76293;DHT22;67256;51.154;4.164;2024-01-07T09:03:32;2.50;99.60
76293;DHT22;67256;51.154;4.164;2024-01-07T09:05:57;2.50;99.70
76293;DHT22;67256;51.154;4.164;2024-01-07T09:08:23;2.50;99.70
76293;DHT22;67256;51.154;4.164;2024-01-07T09:10:49;2.70;99.60
76293;DHT22;67256;51.154;4.164;2024-01-07T09:13:16;2.70;99.20
76293;DHT22;67256;51.154;4.164;2024-01-07T09:15:41;2.40;99.30
76293;DHT22;67256;51.154;4.164;2024-01-07T09:18:07;2.50;99.40
76293;DHT22;67256;51.154;4.164;2024-01-07T09:20:33;2.40;99.10
76293;DHT22;67256;51.154;4.164;2024-01-07T09:22:59;2.60;99.00
76293;DHT22;67256;51.154;4.164;2024-01-07T09:25:25;2.60;98.70
76293;DHT22;67256;51.154;4.164;2024-01-07T09:27:51;2.50;98.70
76293;DHT22;67256;51.154;4.164;2024-01-07T09:30:17;2.50;98.50
76293;DHT22;67256;51.154;4.164;2024-01-07T09:32:44;2.70;97.90
76293;DHT22;67256;51.154;4.164;2024-01-07T09:35:09;2.70;97.80
76293;DHT22;67256;51.154;4.164;2024-01-07T09:37:35;2.60;97.90
76293;DHT22;67256;51.154;4.164;2024-01-07T09:40:01;2.60;98.00
76293;DHT22;67256;51.154;4.164;2024-01-07T09:42:27;2.70;98.10
76293;DHT22;67256;51.154;4.164;2024-01-07T09:44:53;2.50;98.20
76293;DHT22;67256;51.154;4.164;2024-01-07T09:47:20;2.50;98.40
76293;DHT22;67256;51.154;4.164;2024-01-07T09:49:46;2.50;98.60
76293;DHT22;67256;51.154;4.164;2024-01-07T09:52:12;2.50;98.30
76293;DHT22;67256;51.154;4.164;2024-01-07T09:54:39;2.60;98.10
76293;DHT22;67256;51.154;4.164;2024-01-07T09:57:06;2.60;97.70
76293;DHT22;67256;51.154;4.164;2024-01-07T09:59:32;2.80;97.20
76293;DHT22;67256;51.154;4.164;2024-01-07T10:01:57;2.90;96.70
76293;DHT22;67256;51.154;4.164;2024-01-07T10:04:24;2.90;96.50
76293;DHT22;67256;51.154;4.164;2024-01-07T10:06:51;2.90;96.50
76293;DHT22;67256;51.154;4.164;2024-01-07T10:09:18;2.90;96.40
76293;DHT22;67256;51.154;4.164;2024-01-07T10:11:46;3.10;96.00
76293;DHT22;67256;51.154;4.164;2024-01-07T10:14:12;3.20;95.40
76293;DHT22;67256;51.154;4.164;2024-01-07T10:16:38;3.30;95.30
76293;DHT22;67256;51.154;4.164;2024-01-07T10:19:04;3.30;94.90
76293;DHT22;67256;51.154;4.164;2024-01-07T10:21:30;3.20;95.50
76293;DHT22;67256;51.154;4.164;2024-01-07T10:24:13;3.00;95.40
76293;DHT22;67256;51.154;4.164;2024-01-07T10:26:40;2.60;95.90
76293;DHT22;67256;51.154;4.164;2024-01-07T10:29:07;2.60;96.10
76293;DHT22;67256;51.154;4.164;2024-01-07T10:31:38;2.70;96.30
76293;DHT22;67256;51.154;4.164;2024-01-07T10:34:07;2.60;96.30
76293;DHT22;67256;51.154;4.164;2024-01-07T10:36:34;2.70;96.20
76293;DHT22;67256;51.154;4.164;2024-01-07T10:39:01;2.70;96.40
76293;DHT22;67256;51.154;4.164;2024-01-07T10:41:28;2.80;96.20
76293;DHT22;67256;51.154;4.164;2024-01-07T10:43:55;2.90;95.90
76293;DHT22;67256;51.154;4.164;2024-01-07T10:46:21;2.80;95.90
76293;DHT22;67256;51.154;4.164;2024-01-07T10:49:04;2.70;95.90
76293;DHT22;67256;51.154;4.164;2024-01-07T10:51:33;2.60;96.10
76293;DHT22;67256;51.154;4.164;2024-01-07T10:54:01;2.60;96.20
76293;DHT22;67256;51.154;4.164;2024-01-07T10:56:36;2.60;96.30
76293;DHT22;67256;51.154;4.164;2024-01-07T10:59:04;2.60;96.20
76293;DHT22;67256;51.154;4.164;2024-01-07T11:01:30;2.60;96.10
76293;DHT22;67256;51.154;4.164;2024-01-07T11:04:12;2.60;96.20
76293;DHT22;67256;51.154;4.164;2024-01-07T11:06:57;2.80;96.20
76293;DHT22;67256;51.154;4.164;2024-01-07T11:09:35;2.90;95.80
76293;DHT22;67256;51.154;4.164;2024-01-07T11:12:02;2.80;96.00
76293;DHT22;67256;51.154;4.164;2024-01-07T11:14:37;2.70;96.10
76293;DHT22;67256;51.154;4.164;2024-01-07T11:17:05;2.80;95.80
76293;DHT22;67256;51.154;4.164;2024-01-07T11:19:31;2.90;95.60
76293;DHT22;67256;51.154;4.164;2024-01-07T11:22:25;3.00;95.70
76293;DHT22;67256;51.154;4.164;2024-01-07T11:24:54;3.10;95.30
76293;DHT22;67256;51.154;4.164;2024-01-07T11:27:22;3.00;95.50
76293;DHT22;67256;51.154;4.164;2024-01-07T11:30:02;3.00;95.20
76293;DHT22;67256;51.154;4.164;2024-01-07T11:32:30;3.20;95.30
76293;DHT22;67256;51.154;4.164;2024-01-07T11:34:56;3.10;94.80
76293;DHT22;67256;51.154;4.164;2024-01-07T11:37:25;3.00;94.90
76293;DHT22;67256;51.154;4.164;2024-01-07T11:39:55;2.90;95.10
76293;DHT22;67256;51.154;4.164;2024-01-07T11:42:21;2.90;94.90
76293;DHT22;67256;51.154;4.164;2024-01-07T11:44:53;2.90;95.10
76293;DHT22;67256;51.154;4.164;2024-01-07T11:47:20;3.00;94.80
76293;DHT22;67256;51.154;4.164;2024-01-07T11:49:47;2.90;95.00
76293;DHT22;67256;51.154;4.164;2024-01-07T11:52:13;2.90;94.60
76293;DHT22;67256;51.154;4.164;2024-01-07T11:54:39;3.00;94.70
76293;DHT22;67256;51.154;4.164;2024-01-07T11:57:06;2.90;94.90
76293;DHT22;67256;51.154;4.164;2024-01-07T11:59:32;3.10;94.30
76293;DHT22;67256;51.154;4.164;2024-01-07T12:02:00;3.10;94.00
76293;DHT22;67256;51.154;4.164;2024-01-07T12:04:26;3.10;94.10
76293;DHT22;67256;51.154;4.164;2024-01-07T12:06:52;3.20;94.10
76293;DHT22;67256;51.154;4.164;2024-01-07T12:09:17;3.10;94.20
76293;DHT22;67256;51.154;4.164;2024-01-07T12:11:44;3.10;94.10
76293;DHT22;67256;51.154;4.164;2024-01-07T12:14:11;3.10;94.00
76293;DHT22;67256;51.154;4.164;2024-01-07T12:16:37;3.10;94.50
76293;DHT22;67256;51.154;4.164;2024-01-07T12:19:03;2.90;94.90
76293;DHT22;67256;51.154;4.164;2024-01-07T12:21:29;3.00;94.70
76293;DHT22;67256;51.154;4.164;2024-01-07T12:23:56;3.00;94.70
76293;DHT22;67256;51.154;4.164;2024-01-07T12:26:28;2.90;95.10
76293;DHT22;67256;51.154;4.164;2024-01-07T12:28:56;3.00;94.70
76293;DHT22;67256;51.154;4.164;2024-01-07T12:31:26;3.00;94.90
76293;DHT22;67256;51.154;4.164;2024-01-07T12:33:52;3.10;94.90
76293;DHT22;67256;51.154;4.164;2024-01-07T12:36:24;2.80;95.40
76293;DHT22;67256;51.154;4.164;2024-01-07T12:38:51;2.80;95.10
76293;DHT22;67256;51.154;4.164;2024-01-07T12:41:20;2.80;94.80
76293;DHT22;67256;51.154;4.164;2024-01-07T12:43:46;2.90;94.90
76293;DHT22;67256;51.154;4.164;2024-01-07T12:46:11;3.00;94.40
76293;DHT22;67256;51.154;4.164;2024-01-07T12:48:37;3.00;94.50
76293;DHT22;67256;51.154;4.164;2024-01-07T12:51:03;2.90;94.70
76293;DHT22;67256;51.154;4.164;2024-01-07T12:53:29;2.90;94.50
76293;DHT22;67256;51.154;4.164;2024-01-07T12:55:55;2.80;94.90
76293;DHT22;67256;51.154;4.164;2024-01-07T12:58:20;2.90;94.70
76293;DHT22;67256;51.154;4.164;2024-01-07T13:00:47;2.70;94.80
76293;DHT22;67256;51.154;4.164;2024-01-07T13:03:13;2.80;95.10
76293;DHT22;67256;51.154;4.164;2024-01-07T13:05:46;2.80;95.00
76293;DHT22;67256;51.154;4.164;2024-01-07T13:08:15;2.90;94.90
76293;DHT22;67256;51.154;4.164;2024-01-07T13:10:44;2.90;94.80
76293;DHT22;67256;51.154;4.164;2024-01-07T13:13:11;2.60;95.40
76293;DHT22;67256;51.154;4.164;2024-01-07T13:15:38;2.70;95.40
76293;DHT22;67256;51.154;4.164;2024-01-07T13:18:04;2.70;95.20
76293;DHT22;67256;51.154;4.164;2024-01-07T13:20:30;2.90;94.70
76293;DHT22;67256;51.154;4.164;2024-01-07T13:22:56;2.90;94.50
76293;DHT22;67256;51.154;4.164;2024-01-07T13:25:21;2.70;94.60
76293;DHT22;67256;51.154;4.164;2024-01-07T13:27:47;2.60;94.50
76293;DHT22;67256;51.154;4.164;2024-01-07T13:30:13;2.60;94.50
76293;DHT22;67256;51.154;4.164;2024-01-07T13:32:39;2.80;94.30
76293;DHT22;67256;51.154;4.164;2024-01-07T13:35:06;3.00;94.00
76293;DHT22;67256;51.154;4.164;2024-01-07T13:37:36;2.90;94.20
76293;DHT22;67256;51.154;4.164;2024-01-07T13:40:02;2.80;94.50
76293;DHT22;67256;51.154;4.164;2024-01-07T13:42:29;2.80;94.50
76293;DHT22;67256;51.154;4.164;2024-01-07T13:44:55;2.80;94.70
76293;DHT22;67256;51.154;4.164;2024-01-07T13:47:21;2.80;94.50
76293;DHT22;67256;51.154;4.164;2024-01-07T13:49:47;2.90;94.10
76293;DHT22;67256;51.154;4.164;2024-01-07T13:52:13;2.90;94.10
76293;DHT22;67256;51.154;4.164;2024-01-07T13:54:38;2.80;94.30
76293;DHT22;67256;51.154;4.164;2024-01-07T13:57:04;2.80;94.20
76293;DHT22;67256;51.154;4.164;2024-01-07T13:59:30;2.90;94.20
76293;DHT22;67256;51.154;4.164;2024-01-07T14:01:56;3.00;93.90
76293;DHT22;67256;51.154;4.164;2024-01-07T14:04:25;3.00;93.60
76293;DHT22;67256;51.154;4.164;2024-01-07T14:06:54;2.60;94.60
76293;DHT22;67256;51.154;4.164;2024-01-07T14:09:21;2.60;94.60
76293;DHT22;67256;51.154;4.164;2024-01-07T14:11:47;2.60;94.60
76293;DHT22;67256;51.154;4.164;2024-01-07T14:14:13;2.60;94.30
76293;DHT22;67256;51.154;4.164;2024-01-07T14:16:39;2.60;94.50
76293;DHT22;67256;51.154;4.164;2024-01-07T14:19:06;2.40;94.50
76293;DHT22;67256;51.154;4.164;2024-01-07T14:21:32;2.50;94.40
76293;DHT22;67256;51.154;4.164;2024-01-07T14:23:58;2.50;94.40
76293;DHT22;67256;51.154;4.164;2024-01-07T14:26:24;2.40;94.20
76293;DHT22;67256;51.154;4.164;2024-01-07T14:28:50;2.50;93.80
76293;DHT22;67256;51.154;4.164;2024-01-07T14:31:17;2.60;93.50
76293;DHT22;67256;51.154;4.164;2024-01-07T14:33:43;2.70;93.40
76293;DHT22;67256;51.154;4.164;2024-01-07T14:36:09;2.70;93.20
76293;DHT22;67256;51.154;4.164;2024-01-07T14:38:48;2.80;92.90
76293;DHT22;67256;51.154;4.164;2024-01-07T14:41:15;2.80;93.00
76293;DHT22;67256;51.154;4.164;2024-01-07T14:43:41;2.90;93.00
76293;DHT22;67256;51.154;4.164;2024-01-07T14:46:07;2.80;93.30
76293;DHT22;67256;51.154;4.164;2024-01-07T14:48:34;2.80;93.20
76293;DHT22;67256;51.154;4.164;2024-01-07T14:51:00;2.70;93.50
76293;DHT22;67256;51.154;4.164;2024-01-07T14:53:26;2.70;93.50
76293;DHT22;67256;51.154;4.164;2024-01-07T14:55:54;2.80;93.10
76293;DHT22;67256;51.154;4.164;2024-01-07T14:58:19;2.80;93.10
76293;DHT22;67256;51.154;4.164;2024-01-07T15:00:47;2.70;93.00
76293;DHT22;67256;51.154;4.164;2024-01-07T15:03:13;2.80;92.80
76293;DHT22;67256;51.154;4.164;2024-01-07T15:05:39;2.70;93.10
76293;DHT22;67256;51.154;4.164;2024-01-07T15:08:06;2.60;93.30
76293;DHT22;67256;51.154;4.164;2024-01-07T15:10:32;2.40;93.40
76293;DHT22;67256;51.154;4.164;2024-01-07T15:12:58;2.40;93.40
76293;DHT22;67256;51.154;4.164;2024-01-07T15:15:24;2.40;93.30
76293;DHT22;67256;51.154;4.164;2024-01-07T15:17:55;2.40;93.40
76293;DHT22;67256;51.154;4.164;2024-01-07T15:20:21;2.30;92.90
76293;DHT22;67256;51.154;4.164;2024-01-07T15:22:47;2.30;92.30
76293;DHT22;67256;51.154;4.164;2024-01-07T15:25:14;2.10;92.10
76293;DHT22;67256;51.154;4.164;2024-01-07T15:27:40;2.00;91.80
76293;DHT22;67256;51.154;4.164;2024-01-07T15:30:07;2.10;91.80
76293;DHT22;67256;51.154;4.164;2024-01-07T15:32:33;2.10;91.50
76293;DHT22;67256;51.154;4.164;2024-01-07T15:34:59;2.10;91.70
76293;DHT22;67256;51.154;4.164;2024-01-07T15:37:25;2.10;91.80
76293;DHT22;67256;51.154;4.164;2024-01-07T15:39:51;2.20;91.40